Private Wetterstation Sandau
Wetterdaten: April 2012
Datum Temp. A. Feuchte A. Luftdruck Regen Wind Richtung Taupunkt Windchill
01.04.2012 5,7 C 68 % 1011,2 hPa 0,0 l/m 13,1 km/h (3 Bft) W-NW -0,1 C 3,5 C
02.04.2012 5,9 C 69 % 1009,0 hPa 2,1 l/m 4,7 km/h (1 Bft) W-NW 0,5 C 5,1 C
03.04.2012 6,2 C 84 % 1006,7 hPa 3,1 l/m 9,5 km/h (2 Bft) O-NO 3,6 C 4,3 C
04.04.2012 4,3 C 88 % 1012,4 hPa 7,8 l/m 4,8 km/h (1 Bft) O-NO 2,5 C 3,6 C
05.04.2012 5,9 C 73 % 1019,7 hPa 1,0 l/m 2,1 km/h (1 Bft) O-NO 1,4 C 5,5 C
06.04.2012 5,2 C 71 % 1009,7 hPa 0,0 l/m 9,8 km/h (2 Bft) W-SW 0,2 C 3,3 C
07.04.2012 2,8 C 75 % 1005,3 hPa 3,1 l/m 6,6 km/h (2 Bft) W -1,3 C 1,2 C
08.04.2012 3,5 C 54 % 1013,8 hPa 0,0 l/m 2,7 km/h (1 Bft) NW -5,5 C 3,5 C
09.04.2012 6,8 C 71 % 1004,3 hPa 0,5 l/m 9,4 km/h (2 Bft) S 1,8 C 5,4 C
10.04.2012 11,7 C 73 % 997,9 hPa 0,5 l/m 11,6 km/h (2 Bft) S-SO 6,9 C 11,2 C
11.04.2012 9,1 C 83 % 1000,2 hPa 3,1 l/m 2,8 km/h (1 Bft) SO 6,3 C 9,1 C
12.04.2012 9,4 C 76 % 1002,8 hPa 0,5 l/m 2,3 km/h (1 Bft) O-SO 5,3 C 9,4 C
13.04.2012 8,6 C 73 % 1005,2 hPa 3,1 l/m 3,8 km/h (1 Bft) W 4,0 C 8,4 C
14.04.2012 8,7 C 64 % 1007,1 hPa 0,0 l/m 1,3 km/h (1 Bft) O 2,0 C 8,7 C
15.04.2012 9,3 C 56 % 1011,3 hPa 0,0 l/m 9,4 km/h (2 Bft) O-NO 0,3 C 8,2 C
16.04.2012 6,8 C 61 % 1017,2 hPa 0,0 l/m 6,2 km/h (2 Bft) NO -0,7 C 6,0 C
17.04.2012 7,1 C 54 % 1009,8 hPa 0,0 l/m 9,6 km/h (2 Bft) W-SW -1,9 C 5,7 C
18.04.2012 9,1 C 58 % 998,5 hPa 0,0 l/m 2,3 km/h (1 Bft) S-SO 1,0 C 9,1 C
19.04.2012 11,9 C 53 % 995,3 hPa 0,0 l/m 4,1 km/h (1 Bft) O-SO 2,3 C 11,5 C
20.04.2012 12,6 C 60 % 997,1 hPa 0,0 l/m 3,6 km/h (1 Bft) W-SW 4,9 C 12,6 C
21.04.2012 12,7 C 59 % 1001,5 hPa 0,0 l/m 10,3 km/h (2 Bft) S-SO 4,6 C 12,7 C
22.04.2012 10,6 C 65 % 1006,1 hPa 0,5 l/m 3,3 km/h (1 Bft) W-SW 4,2 C 10,6 C
23.04.2012 11,0 C 58 % 1004,7 hPa 0,5 l/m 7,7 km/h (2 Bft) S-SO 2,7 C 11,0 C
24.04.2012 12,2 C 63 % 998,8 hPa 0,5 l/m 6,3 km/h (2 Bft) O 5,2 C 11,8 C
25.04.2012 13,1 C 58 % 1003,6 hPa 0,0 l/m 7,2 km/h (2 Bft) W-SW 4,7 C 13,1 C
26.04.2012 14,6 C 57 % 1008,7 hPa 0,0 l/m 5,2 km/h (1 Bft) S-SO 6,1 C 14,6 C
27.04.2012 16,5 C 56 % 1017,4 hPa 0,0 l/m 5,6 km/h (1 Bft) S 7,5 C 16,5 C
28.04.2012 21,6 C 52 % 1015,1 hPa 0,0 l/m 7,6 km/h (2 Bft) O 11,1 C 21,6 C
29.04.2012 18,9 C 67 % 1008,8 hPa 0,0 l/m 10,9 km/h (2 Bft) O 12,3 C 18,9 C
30.04.2012 17,1 C 61 % 1018,9 hPa 0,0 l/m 4,8 km/h (1 Bft) NO 9,1 C 17,1 C
Min-Datum 08.04.12 15.04.12 19.04.12 13 Tage 01.04.12 - 08.04.12 08.04.12
Min-Zeit 06:31 16:56 17:06 - 00:02 - 14:31 07:11
Minimum -2,1 C 33 % 994,2 hPa - 0,0 km/h (0 Bft) - -6,8 C -4,5 C
Max-Datum 28.04.12 04.04.12 05.04.12 04.04.12 02.04.12 - 29.04.12 28.04.12
Max-Zeit 16:51 08:07 10:22 05:52 04:52 - 19:56 16:51
Maximum 29,8 C 91 % 1021,2 hPa 7,8 l/m 35,6 km/h
W-NW (5 Bft)
- 15,7 C 29,8 C
Durchschnitt 10,0 C 65 % 1007,3 hPa #26,4 l/m 6,3 km/h (2 Bft) O-NO 3,4 C 9,4 C

Durchschnitt Minimum Temp.5,4 C
Durchschnitt Maximum Temp.14,7 C
(c) by David Heller